Time;durP1;ratioP1;P1;durP2;ratioP2;P2;SDS_P1;SDS_P2;PMS_P1;PMS_P2;Temp;Humidity;BMP_temperature;BMP_pressure;BME280_temperature;BME280_humidity;BME280_pressure;Samples;Min_cycle;Max_cycle;Signal;HPM_P1;HPM_P2
2023/06/26 00:01:07;;;;;;;3.97;3.70;;;;;;;;;;5035731;28;20467;-77
2023/06/26 00:03:33;;;;;;;4.70;4.07;;;;;;;;;;5035412;28;20033;-78
2023/06/26 00:06:01;;;;;;;4.18;3.75;;;;;;;;;;5035664;28;20503;-78
2023/06/26 00:08:27;;;;;;;4.45;4.05;;;;;;;;;;5036058;28;20057;-81
2023/06/26 00:10:54;;;;;;;4.35;3.95;;;;;;;;;;5035885;28;20068;-80
2023/06/26 00:13:19;;;;;;;5.13;4.18;;;;;;;;;;5018556;28;20551;-81
2023/06/26 00:15:57;;;;;;;4.53;4.22;;;;;;;;;;5035554;28;20108;-81
2023/06/26 00:18:27;;;;;;;4.28;3.97;;;;;;;;;;5035804;28;20030;-82
2023/06/26 00:20:52;;;;;;;;;;;;;;;;;;5018104;28;20029;-77
2023/06/26 00:23:32;;;;;;;4.73;4.07;;;;;;;;;;5035724;28;20314;-78
2023/06/26 00:25:57;;;;;;;5.03;4.63;;;;;;;;;;5035534;28;20382;-77
2023/06/26 00:28:22;;;;;;;5.20;4.20;;;;;;;;;;5035759;28;20117;-72
2023/06/26 00:30:48;;;;;;;4.68;4.28;;;;;;;;;;5035599;28;20030;-72
2023/06/26 00:33:13;;;;;;;6.30;4.55;;;;;;;;;;5017655;28;20061;-74
2023/06/26 00:35:38;;;;;;;4.32;3.85;;;;;;;;;;5035344;28;20083;-74
2023/06/26 00:38:04;;;;;;;4.53;4.22;;;;;;;;;;5017575;28;20021;-74
2023/06/26 00:40:29;;;;;;;4.47;4.13;;;;;;;;;;5017586;28;20030;-71
2023/06/26 00:42:55;;;;;;;4.32;3.75;;;;;;;;;;5017684;28;20041;-72
2023/06/26 00:45:21;;;;;;;5.55;4.28;;;;;;;;;;5017241;28;20022;-79
2023/06/26 00:47:46;;;;;;;4.45;4.07;;;;;;;;;;5017186;28;20515;-79
2023/06/26 00:50:13;;;;;;;4.35;3.95;;;;;;;;;;5017191;28;20025;-73
2023/06/26 00:52:39;;;;;;;4.35;4.05;;;;;;;;;;5017454;28;20375;-72
2023/06/26 00:55:05;;;;;;;6.72;4.88;;;;;;;;;;5024012;28;20096;-72
2023/06/26 00:57:30;;;;;;;5.15;4.15;;;;;;;;;;5033154;28;20033;-72
2023/06/26 00:59:56;;;;;;;5.38;4.13;;;;;;;;;;5034674;28;20038;-71
2023/06/26 01:02:22;;;;;;;4.40;4.10;;;;;;;;;;5001439;28;20037;-72
2023/06/26 01:04:49;;;;;;;4.22;3.83;;;;;;;;;;5016418;28;20444;-72
2023/06/26 01:07:15;;;;;;;4.63;4.22;;;;;;;;;;5017083;28;20033;-72
2023/06/26 01:09:41;;;;;;;4.95;4.32;;;;;;;;;;5016974;28;20029;-72
2023/06/26 01:12:06;;;;;;;4.75;4.35;;;;;;;;;;5034388;28;20037;-72
2023/06/26 01:14:33;;;;;;;5.20;4.15;;;;;;;;;;5016691;28;20082;-72
2023/06/26 01:17:01;;;;;;;6.85;4.32;;;;;;;;;;5017062;28;20033;-72
2023/06/26 01:19:30;;;;;;;4.40;4.05;;;;;;;;;;5007644;28;20077;-72
2023/06/26 01:22:02;;;;;;;4.50;4.20;;;;;;;;;;5014764;28;20057;-72
2023/06/26 01:24:32;;;;;;;4.70;4.32;;;;;;;;;;4997157;28;20538;-72
2023/06/26 01:26:58;;;;;;;5.38;4.75;;;;;;;;;;4981348;28;20112;-72
2023/06/26 01:29:25;;;;;;;4.40;4.05;;;;;;;;;;5015142;28;20041;-72
2023/06/26 01:31:51;;;;;;;4.65;4.25;;;;;;;;;;4991971;28;20029;-72
2023/06/26 01:34:17;;;;;;;4.28;3.97;;;;;;;;;;5038383;23;20404;-72
2023/06/26 01:36:43;;;;;;;4.32;4.03;;;;;;;;;;5033099;28;20029;-72
2023/06/26 01:39:09;;;;;;;4.90;4.40;;;;;;;;;;5057004;23;20041;-72
2023/06/26 01:41:35;;;;;;;6.50;5.22;;;;;;;;;;5036114;28;20485;-77
2023/06/26 01:44:07;;;;;;;7.10;5.32;;;;;;;;;;5053874;28;20025;-76
2023/06/26 01:46:38;;;;;;;5.40;4.75;;;;;;;;;;5070242;28;20040;-74
2023/06/26 01:49:03;;;;;;;5.38;4.80;;;;;;;;;;5074183;28;20021;-74
2023/06/26 01:51:35;;;;;;;5.13;4.70;;;;;;;;;;5039553;28;20097;-74
2023/06/26 01:54:01;;;;;;;4.50;4.10;;;;;;;;;;5056219;28;20520;-74
2023/06/26 01:56:28;;;;;;;5.13;4.63;;;;;;;;;;5039937;28;20036;-74
2023/06/26 01:58:54;;;;;;;5.00;4.43;;;;;;;;;;5036071;28;20078;-75
2023/06/26 02:01:21;;;;;;;4.25;3.95;;;;;;;;;;5036077;28;20045;-76
2023/06/26 02:03:47;;;;;;;4.75;4.35;;;;;;;;;;5053832;28;20063;-75
2023/06/26 02:06:12;;;;;;;4.57;4.18;;;;;;;;;;5036504;28;20040;-74
2023/06/26 02:08:38;;;;;;;4.72;4.43;;;;;;;;;;5035469;28;20025;-75
2023/06/26 02:11:04;;;;;;;4.47;4.05;;;;;;;;;;5035521;28;20032;-71
2023/06/26 02:13:33;;;;;;;4.38;4.05;;;;;;;;;;5035915;28;20461;-71
2023/06/26 02:15:59;;;;;;;4.63;4.22;;;;;;;;;;5055603;28;20035;-73
2023/06/26 02:18:24;;;;;;;4.80;4.35;;;;;;;;;;5073039;28;20033;-73
2023/06/26 02:20:49;;;;;;;4.55;4.13;;;;;;;;;;5055282;28;20056;-73
2023/06/26 02:23:15;;;;;;;4.95;4.55;;;;;;;;;;5073516;28;20077;-73
2023/06/26 02:25:40;;;;;;;4.55;4.25;;;;;;;;;;5055534;28;20025;-72
2023/06/26 02:28:06;;;;;;;4.75;4.35;;;;;;;;;;5039021;28;20016;-73
2023/06/26 02:30:31;;;;;;;4.60;4.20;;;;;;;;;;5073448;28;20498;-73
2023/06/26 02:32:58;;;;;;;4.88;4.47;;;;;;;;;;5055412;28;20066;-72
2023/06/26 02:35:24;;;;;;;4.78;4.38;;;;;;;;;;5073745;28;20021;-73
2023/06/26 02:37:49;;;;;;;4.82;4.43;;;;;;;;;;5055938;28;20028;-72
2023/06/26 02:40:14;;;;;;;10.45;5.15;;;;;;;;;;5073548;28;20043;-72
2023/06/26 02:42:41;;;;;;;6.97;4.68;;;;;;;;;;5039035;28;20040;-72
2023/06/26 02:45:07;;;;;;;5.30;4.80;;;;;;;;;;5055724;28;20032;-72
2023/06/26 02:47:33;;;;;;;4.88;4.30;;;;;;;;;;5073204;28;20045;-72
2023/06/26 02:49:58;;;;;;;4.97;4.57;;;;;;;;;;5055667;28;20111;-72
2023/06/26 02:52:23;;;;;;;5.55;4.28;;;;;;;;;;5038716;28;20075;-71
2023/06/26 02:54:49;;;;;;;4.85;4.45;;;;;;;;;;5055095;28;20046;-71
2023/06/26 02:57:14;;;;;;;5.10;4.50;;;;;;;;;;5055625;28;20039;-74
2023/06/26 02:59:40;;;;;;;4.18;3.85;;;;;;;;;;5055739;28;20028;-75
2023/06/26 03:02:07;;;;;;;4.78;4.38;;;;;;;;;;5055374;28;20078;-74
2023/06/26 03:04:40;;;;;;;4.63;4.22;;;;;;;;;;5055700;28;20028;-74
2023/06/26 03:07:09;;;;;;;4.55;4.10;;;;;;;;;;5055214;28;20039;-74
2023/06/26 03:09:36;;;;;;;4.88;4.43;;;;;;;;;;5055446;28;20028;-74
2023/06/26 03:12:01;;;;;;;6.15;4.65;;;;;;;;;;5055562;28;20058;-75
2023/06/26 03:14:32;;;;;;;4.95;4.50;;;;;;;;;;5055605;28;20052;-78
2023/06/26 03:17:08;;;;;;;;;;;;;;;;;;5041199;23;20114;-76
2023/06/26 03:19:34;;;;;;;4.22;3.83;;;;;;;;;;5029753;28;19928;-79
2023/06/26 03:22:18;;;;;;;4.93;4.53;;;;;;;;;;5003645;28;20044;-72
2023/06/26 03:27:34;;;;;;;5.57;4.20;;;;;;;;;;5036838;28;20061;-78
2023/06/26 03:29:59;;;;;;;6.57;4.43;;;;;;;;;;5019350;28;20404;-79
2023/06/26 03:32:25;;;;;;;4.68;4.30;;;;;;;;;;5002205;28;20068;-78
2023/06/26 03:34:52;;;;;;;5.03;4.65;;;;;;;;;;5036367;28;20496;-78
2023/06/26 03:37:19;;;;;;;6.18;4.95;;;;;;;;;;5034920;28;20030;-78
2023/06/26 03:39:59;;;;;;;9.25;4.82;;;;;;;;;;5018447;28;20021;-78
2023/06/26 03:42:25;;;;;;;5.43;4.57;;;;;;;;;;5018891;28;20095;-71
2023/06/26 03:44:51;;;;;;;5.10;4.70;;;;;;;;;;5018996;28;20021;-71
2023/06/26 03:47:17;;;;;;;5.20;4.70;;;;;;;;;;5018693;28;20036;-71
2023/06/26 03:49:43;;;;;;;5.85;5.07;;;;;;;;;;5018571;28;20108;-72
2023/06/26 03:52:09;;;;;;;5.78;4.63;;;;;;;;;;5018489;28;20029;-72
2023/06/26 03:54:34;;;;;;;6.43;4.28;;;;;;;;;;5001921;28;20034;-73
2023/06/26 03:57:00;;;;;;;5.93;4.82;;;;;;;;;;5018255;28;20391;-74
2023/06/26 03:59:25;;;;;;;4.90;4.50;;;;;;;;;;5018614;28;20163;-74
2023/06/26 04:01:53;;;;;;;7.18;4.45;;;;;;;;;;5018036;28;20021;-78
2023/06/26 04:04:18;;;;;;;5.00;4.53;;;;;;;;;;5018401;28;20450;-79
2023/06/26 04:06:51;;;;;;;5.00;4.60;;;;;;;;;;5018038;28;20171;-78
2023/06/26 04:09:17;;;;;;;4.85;4.43;;;;;;;;;;5036041;28;20053;-79
2023/06/26 04:11:43;;;;;;;6.35;4.93;;;;;;;;;;5018065;28;20104;-77
2023/06/26 04:14:08;;;;;;;6.40;4.55;;;;;;;;;;5018197;28;20099;-73
2023/06/26 04:16:34;;;;;;;5.80;5.22;;;;;;;;;;5019879;28;20367;-73
2023/06/26 04:18:59;;;;;;;7.35;5.35;;;;;;;;;;5017888;28;20076;-73
2023/06/26 04:21:25;;;;;;;6.38;4.95;;;;;;;;;;5017970;28;20095;-71
2023/06/26 04:23:50;;;;;;;5.63;4.88;;;;;;;;;;5035804;28;20025;-72
2023/06/26 04:26:16;;;;;;;7.28;5.15;;;;;;;;;;5035004;28;20035;-74
2023/06/26 04:28:42;;;;;;;5.55;4.93;;;;;;;;;;5035880;28;20035;-74
2023/06/26 04:31:08;;;;;;;5.63;5.10;;;;;;;;;;5035778;28;20016;-73
2023/06/26 04:33:34;;;;;;;7.18;5.43;;;;;;;;;;5034616;28;20484;-69
2023/06/26 04:36:03;;;;;;;5.50;4.90;;;;;;;;;;5035077;28;20034;-73
2023/06/26 04:38:28;;;;;;;8.98;5.47;;;;;;;;;;5016105;28;20460;-70
2023/06/26 04:40:53;;;;;;;6.50;5.57;;;;;;;;;;5015556;28;20040;-73
2023/06/26 04:43:19;;;;;;;8.18;5.30;;;;;;;;;;5017445;28;20029;-73
2023/06/26 04:45:44;;;;;;;6.28;5.68;;;;;;;;;;5017111;28;20570;-73
2023/06/26 04:48:10;;;;;;;7.80;5.38;;;;;;;;;;5034651;28;20034;-73
2023/06/26 04:50:35;;;;;;;5.78;5.20;;;;;;;;;;5034920;28;20036;-73
2023/06/26 04:53:01;;;;;;;6.95;5.43;;;;;;;;;;5034900;28;20010;-74
2023/06/26 04:55:26;;;;;;;8.70;5.75;;;;;;;;;;5017141;28;20061;-73
2023/06/26 04:57:52;;;;;;;6.97;5.70;;;;;;;;;;5035099;28;20061;-73
2023/06/26 05:00:17;;;;;;;9.07;5.97;;;;;;;;;;5034911;28;20081;-73
2023/06/26 05:02:43;;;;;;;8.75;5.47;;;;;;;;;;5010287;28;20048;-73
2023/06/26 05:05:08;;;;;;;10.48;5.57;;;;;;;;;;5034303;28;20025;-73
2023/06/26 05:07:33;;;;;;;8.80;5.93;;;;;;;;;;5034779;28;20502;-73
2023/06/26 05:09:59;;;;;;;7.50;6.18;;;;;;;;;;5017299;28;20108;-74
2023/06/26 05:12:24;;;;;;;8.35;5.60;;;;;;;;;;5017166;28;20025;-74
2023/06/26 05:14:49;;;;;;;9.70;5.82;;;;;;;;;;5016905;28;20033;-74
2023/06/26 05:17:15;;;;;;;9.98;5.88;;;;;;;;;;5034398;28;20033;-75
2023/06/26 05:19:40;;;;;;;7.43;6.03;;;;;;;;;;5000082;28;20033;-74
2023/06/26 05:22:07;;;;;;;7.50;5.63;;;;;;;;;;5000468;28;20033;-74
2023/06/26 05:29:05;;;;;;;6.25;5.35;;;;;;;;;;5031503;28;20171;-74
2023/06/26 05:31:33;;;;;;;7.20;5.73;;;;;;;;;;5034717;28;20460;-73
2023/06/26 05:33:59;;;;;;;9.27;6.22;;;;;;;;;;5033985;28;20032;-75
2023/06/26 05:36:25;;;;;;;7.78;5.90;;;;;;;;;;5034624;28;20037;-75
2023/06/26 05:38:51;;;;;;;10.15;7.13;;;;;;;;;;5034149;28;20033;-75
2023/06/26 05:41:16;;;;;;;11.15;5.93;;;;;;;;;;5055456;23;20055;-74
2023/06/26 05:43:42;;;;;;;8.43;5.40;;;;;;;;;;5054437;28;20032;-73
2023/06/26 05:46:07;;;;;;;7.57;5.95;;;;;;;;;;5072672;28;20140;-70
2023/06/26 05:48:34;;;;;;;5.45;4.95;;;;;;;;;;5073042;28;20047;-73
2023/06/26 05:50:59;;;;;;;6.07;5.57;;;;;;;;;;5073706;28;20039;-78
2023/06/26 05:53:25;;;;;;;6.88;5.35;;;;;;;;;;5073692;28;20107;-72
2023/06/26 05:55:51;;;;;;;5.45;5.00;;;;;;;;;;5055423;28;20024;-74
2023/06/26 05:58:17;;;;;;;6.43;5.25;;;;;;;;;;5073260;28;20024;-70
2023/06/26 06:00:43;;;;;;;6.13;5.53;;;;;;;;;;5072772;28;20036;-72
2023/06/26 06:03:11;;;;;;;5.80;5.25;;;;;;;;;;5061909;28;20028;-72
2023/06/26 06:05:41;;;;;;;6.28;5.68;;;;;;;;;;5059046;28;20032;-72
2023/06/26 06:08:06;;;;;;;6.28;5.50;;;;;;;;;;5053677;28;20029;-72
2023/06/26 06:10:32;;;;;;;6.68;5.95;;;;;;;;;;5053554;28;20031;-72
2023/06/26 06:12:57;;;;;;;5.72;5.22;;;;;;;;;;5053783;28;20116;-72
2023/06/26 06:15:22;;;;;;;7.05;5.53;;;;;;;;;;5053508;28;20025;-72
2023/06/26 06:17:48;;;;;;;6.50;5.85;;;;;;;;;;5053667;28;20483;-72
2023/06/26 06:20:13;;;;;;;7.63;5.45;;;;;;;;;;5053386;28;20037;-72
2023/06/26 06:22:38;;;;;;;6.05;5.43;;;;;;;;;;5035887;28;20021;-72
2023/06/26 06:25:05;;;;;;;6.25;5.65;;;;;;;;;;5019516;28;20040;-72
2023/06/26 06:27:31;;;;;;;6.07;5.47;;;;;;;;;;5053201;28;20033;-72
2023/06/26 06:29:56;;;;;;;5.70;5.10;;;;;;;;;;5052181;28;20055;-72
2023/06/26 06:32:21;;;;;;;6.18;5.57;;;;;;;;;;5033556;28;20029;-72
2023/06/26 06:34:47;;;;;;;5.70;5.20;;;;;;;;;;5051474;28;20033;-72
2023/06/26 06:37:12;;;;;;;5.25;4.85;;;;;;;;;;5033501;28;20078;-72
2023/06/26 06:39:37;;;;;;;6.03;5.28;;;;;;;;;;5051227;28;20089;-72
2023/06/26 06:42:03;;;;;;;5.97;5.38;;;;;;;;;;5051112;28;20068;-72
2023/06/26 06:44:30;;;;;;;5.75;5.35;;;;;;;;;;5033194;28;20036;-71
2023/06/26 06:46:55;;;;;;;4.65;4.25;;;;;;;;;;5033200;28;20475;-67
2023/06/26 06:49:21;;;;;;;6.05;4.85;;;;;;;;;;5071224;28;20036;-72
2023/06/26 06:51:46;;;;;;;5.10;4.57;;;;;;;;;;5072516;28;20427;-72
2023/06/26 06:54:11;;;;;;;4.30;3.97;;;;;;;;;;5073673;28;20036;-72
2023/06/26 06:56:36;;;;;;;5.35;4.85;;;;;;;;;;5057984;28;20039;-71
2023/06/26 06:59:02;;;;;;;4.97;4.47;;;;;;;;;;5076861;28;20414;-71
2023/06/26 07:01:27;;;;;;;4.82;4.25;;;;;;;;;;5059013;28;20367;-71
2023/06/26 07:03:53;;;;;;;5.47;4.22;;;;;;;;;;5076837;28;20032;-71
2023/06/26 07:06:18;;;;;;;5.25;4.40;;;;;;;;;;5058750;28;20024;-72
2023/06/26 07:08:44;;;;;;;4.15;3.85;;;;;;;;;;5077063;28;20024;-71
2023/06/26 07:11:09;;;;;;;5.18;4.68;;;;;;;;;;5076719;28;20437;-71
2023/06/26 07:13:34;;;;;;;4.45;4.05;;;;;;;;;;5058704;28;20036;-72
2023/06/26 07:15:59;;;;;;;4.07;3.78;;;;;;;;;;5076621;28;20386;-72
2023/06/26 07:18:25;;;;;;;4.25;3.80;;;;;;;;;;5076589;28;20451;-72
2023/06/26 07:20:50;;;;;;;4.43;4.07;;;;;;;;;;5058542;28;20154;-71
2023/06/26 07:23:15;;;;;;;4.40;4.00;;;;;;;;;;5076767;28;20024;-72
2023/06/26 07:25:41;;;;;;;4.63;3.78;;;;;;;;;;5076738;28;20101;-71
2023/06/26 07:28:10;;;;;;;4.88;3.90;;;;;;;;;;5076372;28;20036;-71
2023/06/26 07:30:35;;;;;;;4.00;3.70;;;;;;;;;;5058892;28;20067;-71
2023/06/26 07:33:00;;;;;;;4.75;3.70;;;;;;;;;;5059193;28;20120;-72
2023/06/26 07:35:27;;;;;;;4.30;3.90;;;;;;;;;;5076592;28;20024;-71
2023/06/26 07:37:52;;;;;;;3.65;3.35;;;;;;;;;;5058743;28;20393;-71
2023/06/26 07:40:18;;;;;;;3.72;3.42;;;;;;;;;;5076174;28;20086;-71
2023/06/26 07:42:43;;;;;;;3.95;3.55;;;;;;;;;;5075958;28;20119;-71
2023/06/26 07:45:11;;;;;;;3.35;3.15;;;;;;;;;;5076425;28;20063;-71
2023/06/26 07:47:37;;;;;;;4.05;3.40;;;;;;;;;;5076286;28;20024;-72
2023/06/26 07:50:03;;;;;;;3.97;3.67;;;;;;;;;;5076038;28;20463;-71
2023/06/26 07:52:30;;;;;;;4.53;3.80;;;;;;;;;;5075958;28;20032;-72
2023/06/26 07:54:55;;;;;;;3.80;3.50;;;;;;;;;;5076244;28;20094;-71
2023/06/26 07:57:20;;;;;;;3.50;3.20;;;;;;;;;;5076181;28;20144;-71
2023/06/26 07:59:45;;;;;;;4.82;3.33;;;;;;;;;;5075879;28;20025;-71
2023/06/26 08:02:11;;;;;;;4.95;3.53;;;;;;;;;;5057950;28;20553;-71
2023/06/26 08:04:36;;;;;;;4.10;3.70;;;;;;;;;;5076040;28;20161;-71
2023/06/26 08:07:01;;;;;;;3.30;3.10;;;;;;;;;;5074823;28;20533;-71
2023/06/26 08:09:28;;;;;;;3.30;3.08;;;;;;;;;;5075683;28;20021;-71
2023/06/26 08:11:54;;;;;;;3.53;3.22;;;;;;;;;;5075885;28;20033;-71
2023/06/26 08:14:19;;;;;;;4.07;3.78;;;;;;;;;;5075855;28;20025;-71
2023/06/26 08:16:45;;;;;;;3.47;3.15;;;;;;;;;;5057924;28;20036;-72
2023/06/26 08:19:11;;;;;;;4.57;3.33;;;;;;;;;;5076032;28;20028;-71
2023/06/26 08:21:36;;;;;;;3.70;3.40;;;;;;;;;;5075450;28;20036;-71
2023/06/26 08:24:01;;;;;;;5.07;3.50;;;;;;;;;;5075360;28;20478;-71
2023/06/26 08:26:27;;;;;;;4.18;3.80;;;;;;;;;;5057324;28;20068;-72
2023/06/26 08:28:52;;;;;;;3.78;3.35;;;;;;;;;;5075232;28;20025;-71
2023/06/26 08:31:17;;;;;;;3.53;3.10;;;;;;;;;;5057228;28;20033;-71
2023/06/26 08:33:43;;;;;;;3.20;3.00;;;;;;;;;;5075189;28;20024;-71
2023/06/26 08:36:08;;;;;;;4.22;3.45;;;;;;;;;;5075083;28;20363;-71
2023/06/26 08:38:33;;;;;;;3.30;2.97;;;;;;;;;;5057822;28;20050;-71
2023/06/26 08:40:59;;;;;;;3.67;3.38;;;;;;;;;;5074821;28;20466;-71
2023/06/26 08:43:26;;;;;;;5.50;3.53;;;;;;;;;;5057440;28;20471;-72
2023/06/26 08:45:51;;;;;;;3.47;3.17;;;;;;;;;;5056933;28;20525;-71
2023/06/26 08:48:17;;;;;;;4.18;3.78;;;;;;;;;;5074877;28;20125;-72
2023/06/26 08:50:43;;;;;;;5.70;4.50;;;;;;;;;;5056902;28;20027;-72
2023/06/26 08:53:17;;;;;;;4.10;3.80;;;;;;;;;;5075016;28;20024;-72
2023/06/26 08:55:43;;;;;;;4.95;3.90;;;;;;;;;;5056849;28;20086;-72
2023/06/26 08:58:09;;;;;;;4.63;3.58;;;;;;;;;;5074638;28;20032;-71
2023/06/26 09:00:34;;;;;;;3.22;2.72;;;;;;;;;;5057244;28;20032;-72
2023/06/26 09:03:00;;;;;;;3.42;3.15;;;;;;;;;;5074812;28;20063;-71
2023/06/26 09:05:27;;;;;;;4.47;3.42;;;;;;;;;;5057014;28;20043;-71
2023/06/26 09:07:55;;;;;;;4.03;3.70;;;;;;;;;;5056598;28;20033;-72
2023/06/26 09:10:20;;;;;;;3.65;3.13;;;;;;;;;;5074437;28;20040;-72
2023/06/26 09:12:47;;;;;;;3.85;3.30;;;;;;;;;;5056606;28;20036;-72
2023/06/26 09:15:14;;;;;;;3.47;3.28;;;;;;;;;;5074607;28;20028;-72
2023/06/26 09:17:41;;;;;;;3.42;3.22;;;;;;;;;;5074549;28;20035;-72
2023/06/26 09:20:07;;;;;;;4.18;3.78;;;;;;;;;;5056364;28;20081;-72
2023/06/26 09:22:33;;;;;;;4.25;3.45;;;;;;;;;;5074507;28;20523;-71
2023/06/26 09:24:59;;;;;;;3.38;3.15;;;;;;;;;;5056329;28;20115;-71
2023/06/26 09:27:24;;;;;;;3.40;3.10;;;;;;;;;;5074071;28;20071;-72
2023/06/26 09:29:50;;;;;;;3.92;3.42;;;;;;;;;;5074371;28;20052;-71
2023/06/26 09:32:15;;;;;;;4.32;3.40;;;;;;;;;;5074890;28;20112;-71
2023/06/26 09:34:42;;;;;;;4.00;3.60;;;;;;;;;;5074008;28;20036;-72
2023/06/26 09:37:08;;;;;;;4.00;3.60;;;;;;;;;;5073935;28;20055;-72
2023/06/26 09:39:33;;;;;;;4.95;3.50;;;;;;;;;;5056068;28;20475;-72
2023/06/26 09:42:01;;;;;;;3.90;3.42;;;;;;;;;;5073892;28;20134;-72
2023/06/26 09:44:27;;;;;;;6.75;4.00;;;;;;;;;;5056305;28;20060;-71
2023/06/26 09:46:54;;;;;;;3.75;3.45;;;;;;;;;;5074367;28;20133;-72
2023/06/26 09:49:21;;;;;;;4.15;3.75;;;;;;;;;;5074625;28;20064;-72
2023/06/26 09:51:48;;;;;;;4.10;3.78;;;;;;;;;;5073799;28;20551;-72
2023/06/26 09:54:16;;;;;;;4.85;4.45;;;;;;;;;;5074067;28;20021;-72
2023/06/26 09:56:41;;;;;;;4.53;4.07;;;;;;;;;;5073748;28;20050;-71
2023/06/26 09:59:07;;;;;;;3.88;3.55;;;;;;;;;;5073734;28;20648;-72
2023/06/26 10:01:33;;;;;;;4.32;3.83;;;;;;;;;;5056111;28;20067;-72
2023/06/26 10:03:58;;;;;;;5.95;3.90;;;;;;;;;;5074233;28;20028;-72
2023/06/26 10:06:28;;;;;;;3.53;3.22;;;;;;;;;;5073586;28;20405;-72
2023/06/26 10:08:54;;;;;;;3.80;3.40;;;;;;;;;;5056166;28;20378;-72
2023/06/26 10:11:22;;;;;;;4.95;4.55;;;;;;;;;;5055593;28;20016;-72
2023/06/26 10:13:49;;;;;;;4.45;4.05;;;;;;;;;;5073868;28;20029;-72
2023/06/26 10:16:18;;;;;;;4.10;3.80;;;;;;;;;;5056028;28;20052;-71
2023/06/26 10:18:43;;;;;;;3.95;3.58;;;;;;;;;;5038947;28;20040;-72
2023/06/26 10:21:11;;;;;;;4.07;3.78;;;;;;;;;;5073809;28;20028;-72
2023/06/26 10:23:38;;;;;;;4.63;4.32;;;;;;;;;;5073750;28;20032;-72
2023/06/26 10:26:05;;;;;;;6.97;3.33;;;;;;;;;;5073655;28;20029;-72
2023/06/26 10:28:32;;;;;;;3.80;3.28;;;;;;;;;;5073724;28;20055;-67
2023/06/26 10:30:57;;;;;;;3.70;3.40;;;;;;;;;;5075405;28;20036;-67
2023/06/26 10:33:23;;;;;;;4.70;3.65;;;;;;;;;;5077857;28;20021;-67
2023/06/26 10:35:49;;;;;;;4.07;3.55;;;;;;;;;;5042944;28;20029;-67
2023/06/26 10:38:14;;;;;;;9.20;3.40;;;;;;;;;;5059788;28;20382;-67
2023/06/26 10:40:44;;;;;;;5.53;4.88;;;;;;;;;;5077363;28;20028;-67
2023/06/26 10:43:11;;;;;;;9.38;6.38;;;;;;;;;;5077340;28;20451;-68
2023/06/26 10:45:37;;;;;;;4.63;4.22;;;;;;;;;;5077530;28;20032;-68
2023/06/26 10:48:04;;;;;;;6.85;5.60;;;;;;;;;;5059161;28;20032;-67
2023/06/26 10:50:35;;;;;;;4.38;3.97;;;;;;;;;;5059210;28;20036;-67
2023/06/26 10:53:20;;;;;;;5.07;3.80;;;;;;;;;;5077342;28;20032;-67
2023/06/26 10:55:50;;;;;;;5.28;4.30;;;;;;;;;;5077021;28;20032;-67
2023/06/26 10:58:30;;;;;;;4.97;4.47;;;;;;;;;;5077284;28;20477;-67
2023/06/26 11:01:23;;;;;;;3.63;3.30;;;;;;;;;;5077169;28;20031;-67
2023/06/26 11:04:05;;;;;;;3.90;3.65;;;;;;;;;;5073197;28;20536;-68
2023/06/26 11:06:31;;;;;;;2.97;2.78;;;;;;;;;;5077052;28;20146;-68
2023/06/26 11:09:16;;;;;;;3.88;3.47;;;;;;;;;;5076789;28;20488;-68
2023/06/26 11:11:51;;;;;;;3.08;2.88;;;;;;;;;;5075956;28;20040;-67
2023/06/26 11:14:20;;;;;;;3.15;2.95;;;;;;;;;;5076634;28;20474;-68
2023/06/26 11:16:47;;;;;;;2.90;2.70;;;;;;;;;;5058893;28;20120;-68
2023/06/26 11:19:13;;;;;;;3.28;2.88;;;;;;;;;;5058801;28;20482;-68
2023/06/26 11:21:38;;;;;;;4.47;3.28;;;;;;;;;;5058622;28;20024;-68
2023/06/26 11:24:06;;;;;;;3.00;2.80;;;;;;;;;;5076480;28;20174;-68
2023/06/26 11:26:37;;;;;;;2.75;2.55;;;;;;;;;;5076688;28;20123;-68
2023/06/26 11:29:02;;;;;;;3.88;3.20;;;;;;;;;;5076693;28;20036;-68
2023/06/26 11:31:31;;;;;;;3.22;2.92;;;;;;;;;;5076397;28;20021;-68
2023/06/26 11:34:03;;;;;;;3.10;2.90;;;;;;;;;;5058404;28;20025;-68
2023/06/26 11:36:29;;;;;;;3.45;2.83;;;;;;;;;;5055626;28;20091;-68
2023/06/26 11:38:58;;;;;;;3.30;3.10;;;;;;;;;;5076510;28;20032;-68
2023/06/26 11:41:27;;;;;;;3.47;3.13;;;;;;;;;;5057651;28;20044;-68
2023/06/26 11:43:52;;;;;;;3.40;3.10;;;;;;;;;;5075672;28;20033;-68
2023/06/26 11:46:19;;;;;;;2.90;2.70;;;;;;;;;;5058097;28;20029;-67
2023/06/26 11:48:44;;;;;;;3.78;3.10;;;;;;;;;;5076917;28;20352;-67
2023/06/26 11:51:09;;;;;;;3.50;3.20;;;;;;;;;;5076029;28;20024;-67
2023/06/26 11:53:44;;;;;;;3.65;3.35;;;;;;;;;;5076012;28;20017;-68
2023/06/26 11:56:14;;;;;;;4.13;3.05;;;;;;;;;;5076203;28;20028;-67
2023/06/26 11:59:02;;;;;;;4.00;3.67;;;;;;;;;;5076187;28;20074;-68
2023/06/26 12:01:31;;;;;;;4.20;3.90;;;;;;;;;;5057925;28;20036;-67
2023/06/26 12:04:08;;;;;;;5.15;4.65;;;;;;;;;;5074963;22;20410;-67
2023/06/26 12:06:35;;;;;;;4.22;3.92;;;;;;;;;;5057091;23;20049;-72
2023/06/26 12:09:03;;;;;;;5.47;4.70;;;;;;;;;;5017953;28;20372;-72
2023/06/26 12:11:29;;;;;;;7.45;5.78;;;;;;;;;;5036003;28;20013;-72
2023/06/26 12:13:55;;;;;;;5.82;4.72;;;;;;;;;;5035666;28;20033;-72
2023/06/26 12:16:20;;;;;;;3.78;3.55;;;;;;;;;;5035614;28;20080;-72
2023/06/26 12:18:46;;;;;;;4.47;4.07;;;;;;;;;;5017945;28;20048;-72
2023/06/26 12:21:30;;;;;;;5.00;4.60;;;;;;;;;;5035802;28;20490;-72
2023/06/26 12:23:59;;;;;;;5.18;3.67;;;;;;;;;;5035727;28;20032;-72
2023/06/26 12:26:26;;;;;;;4.55;3.30;;;;;;;;;;5034121;28;20460;-72
2023/06/26 12:28:51;;;;;;;3.63;3.40;;;;;;;;;;5035410;28;20033;-72
2023/06/26 12:31:16;;;;;;;5.55;4.10;;;;;;;;;;5035611;28;20068;-72
2023/06/26 12:33:43;;;;;;;4.63;3.78;;;;;;;;;;5035289;28;20033;-72
2023/06/26 12:36:14;;;;;;;3.55;3.25;;;;;;;;;;5035261;28;20021;-72
2023/06/26 12:38:41;;;;;;;4.03;3.72;;;;;;;;;;5018020;28;20097;-72
2023/06/26 12:41:11;;;;;;;5.78;3.67;;;;;;;;;;5035151;28;20123;-72
2023/06/26 12:43:39;;;;;;;4.63;3.90;;;;;;;;;;5034574;28;20044;-72
2023/06/26 12:46:05;;;;;;;5.15;4.60;;;;;;;;;;5017240;28;20029;-72
2023/06/26 12:48:43;;;;;;;3.85;3.22;;;;;;;;;;5033753;28;20091;-72
2023/06/26 12:51:09;;;;;;;5.18;4.78;;;;;;;;;;5035514;28;20029;-72
2023/06/26 12:53:35;;;;;;;4.13;3.83;;;;;;;;;;5017190;28;20030;-72
2023/06/26 12:56:01;;;;;;;3.40;3.17;;;;;;;;;;5035100;28;20113;-68
2023/06/26 12:58:26;;;;;;;3.20;3.00;;;;;;;;;;5035067;28;20017;-68
2023/06/26 13:00:53;;;;;;;3.47;3.17;;;;;;;;;;5034855;28;20025;-68
2023/06/26 13:03:20;;;;;;;4.18;3.00;;;;;;;;;;5034493;28;20044;-67
2023/06/26 13:05:45;;;;;;;3.28;3.08;;;;;;;;;;5016169;28;20042;-68
2023/06/26 13:08:12;;;;;;;2.92;2.70;;;;;;;;;;5036233;28;20071;-68
2023/06/26 13:10:37;;;;;;;3.08;2.88;;;;;;;;;;5015595;28;20534;-68
2023/06/26 13:13:03;;;;;;;2.95;2.65;;;;;;;;;;5053742;28;20033;-68
2023/06/26 13:15:29;;;;;;;3.05;2.85;;;;;;;;;;5054114;28;20076;-67
2023/06/26 13:17:54;;;;;;;3.40;3.17;;;;;;;;;;5053734;28;20069;-68
2023/06/26 13:20:19;;;;;;;3.28;3.08;;;;;;;;;;5053913;28;20021;-67
2023/06/26 13:22:46;;;;;;;2.80;2.60;;;;;;;;;;5053959;28;20033;-72
2023/06/26 13:25:11;;;;;;;2.97;2.42;;;;;;;;;;5053800;28;20037;-68
2023/06/26 13:27:37;;;;;;;3.13;2.80;;;;;;;;;;5053684;28;20033;-72
2023/06/26 13:30:03;;;;;;;3.58;3.05;;;;;;;;;;5036332;28;20151;-72
2023/06/26 13:32:31;;;;;;;4.57;3.22;;;;;;;;;;5054349;28;20435;-72
2023/06/26 13:34:57;;;;;;;4.97;3.45;;;;;;;;;;5053516;28;20021;-73
2023/06/26 13:37:24;;;;;;;3.60;3.30;;;;;;;;;;5036080;28;20467;-72
2023/06/26 13:39:50;;;;;;;4.60;2.92;;;;;;;;;;5036037;28;20517;-72
2023/06/26 13:42:17;;;;;;;4.18;3.35;;;;;;;;;;5053758;28;20059;-72
2023/06/26 13:44:43;;;;;;;3.92;3.55;;;;;;;;;;5054028;28;20470;-72
2023/06/26 13:47:09;;;;;;;3.83;3.55;;;;;;;;;;5053694;28;20040;-72
2023/06/26 13:49:34;;;;;;;4.03;3.63;;;;;;;;;;5053974;28;20021;-72
2023/06/26 13:52:00;;;;;;;3.50;3.30;;;;;;;;;;5053058;28;20028;-72
2023/06/26 13:54:25;;;;;;;3.13;2.90;;;;;;;;;;5052812;28;20407;-72
2023/06/26 13:56:50;;;;;;;3.20;3.00;;;;;;;;;;5034720;28;20084;-72
2023/06/26 13:59:16;;;;;;;3.40;3.20;;;;;;;;;;5018714;28;20036;-72
2023/06/26 14:01:43;;;;;;;3.70;3.40;;;;;;;;;;5053371;28;20064;-72
2023/06/26 14:04:09;;;;;;;3.55;3.20;;;;;;;;;;5035082;28;20371;-72
2023/06/26 14:06:34;;;;;;;3.55;3.22;;;;;;;;;;5051535;28;20052;-72
2023/06/26 14:09:00;;;;;;;3.10;2.90;;;;;;;;;;5052514;28;20158;-72
2023/06/26 14:11:26;;;;;;;5.53;3.20;;;;;;;;;;5035463;28;20476;-72
2023/06/26 14:13:52;;;;;;;3.38;3.08;;;;;;;;;;5034831;28;20028;-71
2023/06/26 14:16:18;;;;;;;3.35;3.15;;;;;;;;;;5052542;28;20029;-72
2023/06/26 14:18:44;;;;;;;4.07;3.70;;;;;;;;;;5052989;28;20032;-71
2023/06/26 14:21:09;;;;;;;3.38;3.08;;;;;;;;;;5053359;28;20033;-72
2023/06/26 14:23:35;;;;;;;6.30;3.65;;;;;;;;;;5053378;28;20032;-72
2023/06/26 14:26:00;;;;;;;3.42;3.15;;;;;;;;;;5035462;28;20009;-72
2023/06/26 14:28:25;;;;;;;3.88;3.20;;;;;;;;;;5035610;28;20486;-72
2023/06/26 14:30:51;;;;;;;3.88;3.47;;;;;;;;;;5035558;28;20037;-72
2023/06/26 14:33:16;;;;;;;4.18;3.72;;;;;;;;;;5035090;28;20044;-72
2023/06/26 14:35:41;;;;;;;3.70;3.40;;;;;;;;;;5053245;28;20083;-72
2023/06/26 14:38:07;;;;;;;3.90;3.50;;;;;;;;;;5052817;28;20085;-67
2023/06/26 14:40:32;;;;;;;4.07;3.75;;;;;;;;;;5052576;28;20033;-66
2023/06/26 14:42:58;;;;;;;3.60;3.38;;;;;;;;;;5052414;28;20017;-67
2023/06/26 14:45:23;;;;;;;3.72;3.42;;;;;;;;;;5052005;28;20032;-69
2023/06/26 14:47:48;;;;;;;4.30;3.50;;;;;;;;;;5052349;28;20359;-68